createdAt,value
2023-01-03T00:00:42.071Z,8.92
2023-01-03T00:03:12.294Z,8.91
2023-01-03T00:05:42.623Z,8.93
2023-01-03T00:08:10.611Z,8.92
2023-01-03T00:10:38.822Z,8.92
2023-01-03T00:13:06.876Z,8.93
2023-01-03T00:15:35.813Z,8.93
2023-01-03T00:18:06.253Z,8.89
2023-01-03T00:20:35.213Z,8.87
2023-01-03T00:23:03.299Z,8.82
2023-01-03T00:25:31.174Z,8.77
2023-01-03T00:27:59.035Z,8.77
2023-01-03T00:30:26.932Z,8.73
2023-01-03T00:32:54.893Z,8.68
2023-01-03T00:35:24.273Z,8.68
2023-01-03T00:37:52.225Z,8.67
2023-01-03T00:40:20.052Z,8.62
2023-01-03T00:43:05.313Z,8.60
2023-01-03T00:45:35.534Z,8.59
2023-01-03T00:48:03.738Z,8.59
2023-01-03T00:50:33.006Z,8.60
2023-01-03T00:53:00.877Z,8.59
2023-01-03T00:55:28.681Z,8.54
2023-01-03T00:57:56.462Z,8.50
2023-01-03T01:00:24.494Z,8.47
2023-01-03T01:02:54.794Z,8.46
2023-01-03T01:05:23.391Z,8.47
2023-01-03T01:07:52.636Z,8.46
2023-01-03T01:10:20.748Z,8.46
2023-01-03T01:12:48.630Z,8.46
2023-01-03T01:15:16.455Z,8.46
2023-01-03T01:17:44.354Z,8.43
2023-01-03T01:20:13.787Z,8.41
2023-01-03T01:22:41.737Z,8.40
2023-01-03T01:25:11.213Z,8.39
2023-01-03T01:27:39.160Z,8.37
2023-01-03T01:30:10.481Z,8.37
2023-01-03T01:32:38.216Z,8.39
2023-01-03T01:35:06.643Z,8.39
2023-01-03T01:37:34.521Z,8.39
2023-01-03T01:40:03.210Z,8.41
2023-01-03T01:42:49.900Z,8.37
2023-01-03T01:45:17.779Z,8.37
2023-01-03T01:47:51.932Z,8.32
2023-01-03T01:50:25.304Z,8.30
2023-01-03T01:52:58.872Z,8.32
2023-01-03T01:55:36.784Z,8.32
2023-01-03T01:58:07.544Z,8.35
2023-01-03T02:00:36.236Z,8.36
2023-01-03T02:03:05.037Z,8.38
2023-01-03T02:05:37.484Z,8.38
2023-01-03T02:08:06.228Z,8.37
2023-01-03T02:10:47.278Z,8.36
2023-01-03T02:13:25.724Z,8.37
2023-01-03T02:16:19.759Z,8.35
2023-01-03T02:18:54.968Z,8.40
2023-01-03T02:21:59.538Z,8.37
2023-01-03T02:25:15.921Z,8.34
2023-01-03T02:28:16.894Z,8.36
2023-01-03T02:30:53.182Z,8.35
2023-01-03T02:33:28.463Z,8.35
2023-01-03T02:36:06.855Z,8.35
2023-01-03T02:38:48.033Z,8.36
2023-01-03T02:41:25.478Z,8.37
2023-01-03T02:43:56.740Z,8.38
2023-01-03T02:46:31.923Z,8.38
2023-01-03T02:49:06.788Z,8.39
2023-01-03T02:51:38.285Z,8.40
2023-01-03T02:54:11.608Z,8.41
2023-01-03T02:56:45.290Z,8.41
2023-01-03T02:59:16.910Z,8.43
2023-01-03T03:01:50.160Z,8.46
2023-01-03T03:04:19.634Z,8.47
2023-01-03T03:06:53.526Z,8.48
2023-01-03T03:09:21.374Z,8.49
2023-01-03T03:12:07.561Z,8.51
2023-01-03T03:14:40.649Z,8.50
2023-01-03T03:17:14.887Z,8.50
2023-01-03T03:20:06.028Z,8.48
2023-01-03T03:22:57.088Z,8.47
2023-01-03T03:25:28.811Z,8.46
2023-01-03T03:28:17.855Z,8.44
2023-01-03T03:30:49.159Z,8.45
2023-01-03T03:33:21.487Z,8.44
2023-01-03T03:35:55.743Z,8.45
2023-01-03T03:38:28.825Z,8.44
2023-01-03T03:41:27.938Z,8.39
2023-01-03T03:44:22.585Z,8.35
2023-01-03T03:46:57.310Z,8.31
2023-01-03T03:49:41.033Z,8.30
2023-01-03T03:52:14.602Z,8.28
2023-01-03T03:54:47.937Z,8.25
2023-01-03T03:57:22.118Z,8.22
2023-01-03T03:59:54.608Z,8.11
2023-01-03T04:02:24.283Z,8.06
2023-01-03T04:04:58.103Z,8.04
2023-01-03T04:07:26.384Z,8.03
2023-01-03T04:09:54.307Z,8.04
2023-01-03T04:12:22.338Z,8.02
2023-01-03T04:14:50.272Z,7.98
2023-01-03T04:17:20.092Z,7.94
2023-01-03T04:19:48.011Z,7.93
2023-01-03T04:22:17.390Z,7.94
2023-01-03T04:24:45.331Z,7.94
2023-01-03T04:27:13.170Z,7.93
2023-01-03T04:29:41.822Z,7.90
2023-01-03T04:32:10.259Z,7.89
2023-01-03T04:34:38.271Z,7.88
2023-01-03T04:37:06.203Z,7.84
2023-01-03T04:39:37.533Z,7.79
2023-01-03T04:42:25.823Z,7.74
2023-01-03T04:44:53.051Z,7.69
2023-01-03T04:47:21.047Z,7.64
2023-01-03T04:49:49.543Z,7.61
2023-01-03T04:52:17.872Z,7.59
2023-01-03T04:54:47.312Z,7.55
2023-01-03T04:57:15.142Z,7.54
2023-01-03T04:59:43.108Z,7.54
2023-01-03T05:02:11.196Z,7.54
2023-01-03T05:04:39.354Z,7.54
2023-01-03T05:07:07.644Z,7.53
2023-01-03T05:09:35.591Z,7.55
2023-01-03T05:12:05.188Z,7.55
2023-01-03T05:14:33.185Z,7.55
2023-01-03T05:17:01.188Z,7.55
2023-01-03T05:19:29.121Z,7.55
2023-01-03T05:22:14.541Z,7.54
2023-01-03T05:25:03.092Z,7.49
2023-01-03T05:27:33.515Z,7.47
2023-01-03T05:30:02.329Z,7.43
2023-01-03T05:32:30.307Z,7.41
2023-01-03T05:34:58.150Z,7.41
2023-01-03T05:37:28.578Z,7.40
2023-01-03T05:39:56.397Z,7.39
2023-01-03T05:42:24.426Z,7.39
2023-01-03T05:44:53.761Z,7.39
2023-01-03T05:47:22.152Z,7.34
2023-01-03T05:49:50.001Z,7.31
2023-01-03T05:52:18.098Z,7.30
2023-01-03T05:54:46.018Z,7.29
2023-01-03T05:57:14.031Z,7.29
2023-01-03T05:59:41.939Z,7.25
2023-01-03T06:02:11.335Z,7.23
2023-01-03T06:04:39.479Z,7.23
2023-01-03T06:07:07.316Z,7.25
2023-01-03T06:09:35.459Z,7.24
2023-01-03T06:12:03.410Z,7.24
2023-01-03T06:14:31.242Z,7.21
2023-01-03T06:17:16.689Z,7.20
2023-01-03T06:19:46.087Z,7.16
2023-01-03T06:22:13.975Z,7.17
2023-01-03T06:24:41.986Z,7.20
2023-01-03T06:27:09.870Z,7.20
2023-01-03T06:29:37.853Z,7.21
2023-01-03T06:32:09.570Z,7.20
2023-01-03T06:34:37.813Z,7.19
2023-01-03T06:37:07.299Z,7.16
2023-01-03T06:39:35.188Z,7.16
2023-01-03T06:42:23.231Z,7.15
2023-01-03T06:45:05.123Z,7.12
2023-01-03T06:47:50.743Z,7.10
2023-01-03T06:50:36.466Z,7.09
2023-01-03T06:53:14.677Z,7.08
2023-01-03T06:55:44.445Z,7.06
2023-01-03T06:58:13.315Z,7.04
2023-01-03T07:00:45.642Z,7.02
2023-01-03T07:03:13.531Z,7.01
2023-01-03T07:05:41.586Z,7.01
2023-01-03T07:08:10.812Z,6.98
2023-01-03T07:10:38.670Z,6.97
2023-01-03T07:13:23.709Z,6.96
2023-01-03T07:15:51.836Z,6.94
2023-01-03T07:18:20.030Z,6.93
2023-01-03T07:20:47.933Z,6.91
2023-01-03T07:23:17.083Z,6.89
2023-01-03T07:25:45.081Z,6.86
2023-01-03T07:28:15.010Z,6.85
2023-01-03T07:30:44.541Z,6.86
2023-01-03T07:33:14.886Z,6.88
2023-01-03T07:35:42.973Z,6.89
2023-01-03T07:38:12.689Z,6.89
2023-01-03T07:40:42.170Z,6.87
2023-01-03T07:43:28.271Z,6.86
2023-01-03T07:45:56.215Z,6.82
2023-01-03T07:48:24.092Z,6.79
2023-01-03T07:50:57.350Z,6.75
2023-01-03T07:53:25.523Z,6.72
2023-01-03T07:55:54.978Z,6.71
2023-01-03T07:58:23.036Z,6.71
2023-01-03T08:00:51.089Z,6.69
2023-01-03T08:03:19.431Z,6.70
2023-01-03T08:05:47.452Z,6.70
2023-01-03T08:08:15.287Z,6.72
2023-01-03T08:11:00.514Z,6.73
2023-01-03T08:13:29.770Z,6.73
2023-01-03T08:15:58.233Z,6.76
2023-01-03T08:18:27.788Z,6.78
2023-01-03T08:20:57.515Z,6.82
2023-01-03T08:23:26.899Z,6.86
2023-01-03T08:26:01.254Z,6.88
2023-01-03T08:28:30.859Z,6.92
2023-01-03T08:30:59.564Z,6.94
2023-01-03T08:33:29.511Z,6.97
2023-01-03T08:36:01.718Z,7.01
2023-01-03T08:38:35.639Z,7.06
2023-01-03T08:41:06.368Z,7.11
2023-01-03T08:43:38.068Z,7.17
2023-01-03T08:46:09.186Z,7.20
2023-01-03T08:48:37.244Z,7.25
2023-01-03T08:51:05.744Z,7.27
2023-01-03T08:53:36.049Z,7.30
2023-01-03T08:56:04.321Z,7.34
2023-01-03T08:58:32.331Z,7.36
2023-01-03T09:01:04.167Z,7.42
2023-01-03T09:03:32.295Z,7.45
2023-01-03T09:06:01.888Z,7.50
2023-01-03T09:08:31.190Z,7.54
2023-01-03T09:10:59.467Z,7.56
2023-01-03T09:13:27.463Z,7.60
2023-01-03T09:16:03.320Z,7.63
2023-01-03T09:18:31.271Z,7.69
2023-01-03T09:20:59.252Z,7.73
2023-01-03T09:23:27.271Z,7.75
2023-01-03T09:25:55.138Z,7.78
2023-01-03T09:28:23.244Z,7.81
2023-01-03T09:30:51.449Z,7.82
2023-01-03T09:33:20.747Z,7.88
2023-01-03T09:35:48.771Z,7.92
2023-01-03T09:38:16.816Z,7.99
2023-01-03T09:40:46.666Z,8.09
2023-01-03T09:43:24.758Z,8.17
2023-01-03T09:45:55.218Z,8.27
2023-01-03T09:48:33.777Z,8.37
2023-01-03T09:51:22.526Z,8.46
2023-01-03T09:54:08.225Z,8.51
2023-01-03T09:56:53.410Z,8.53
2023-01-03T09:59:38.801Z,8.54
2023-01-03T10:02:48.077Z,8.58
2023-01-03T10:05:37.099Z,8.64
2023-01-03T10:08:24.360Z,8.67
2023-01-03T10:11:02.070Z,8.73
2023-01-03T10:13:41.814Z,8.74
2023-01-03T10:16:16.588Z,8.77
2023-01-03T10:19:02.244Z,8.80
2023-01-03T10:21:38.624Z,8.83
2023-01-03T10:24:19.241Z,8.85
2023-01-03T10:26:49.862Z,8.92
2023-01-03T10:29:19.913Z,8.96
2023-01-03T10:32:04.416Z,9.00
2023-01-03T10:34:32.360Z,9.05
2023-01-03T10:37:02.558Z,9.09
2023-01-03T10:39:33.111Z,9.13
2023-01-03T10:42:01.414Z,9.16
2023-01-03T10:44:31.722Z,9.22
2023-01-03T10:47:01.237Z,9.24
2023-01-03T10:49:31.069Z,9.28
2023-01-03T10:52:03.845Z,9.24
2023-01-03T10:54:49.824Z,9.31
2023-01-03T10:57:43.617Z,9.30
2023-01-03T11:00:30.599Z,9.29
2023-01-03T11:03:11.601Z,9.33
2023-01-03T11:05:40.891Z,9.35
2023-01-03T11:08:18.746Z,9.37
2023-01-03T11:10:56.307Z,9.34
2023-01-03T11:13:35.464Z,9.37
2023-01-03T11:16:13.591Z,9.41
2023-01-03T11:18:43.015Z,9.44
2023-01-03T11:21:17.925Z,9.45
2023-01-03T11:24:03.655Z,9.45
2023-01-03T11:26:45.308Z,9.51
2023-01-03T11:29:25.145Z,9.53
2023-01-03T11:32:00.999Z,9.57
2023-01-03T11:35:22.397Z,9.57
2023-01-03T11:37:53.064Z,9.61
2023-01-03T11:40:29.820Z,9.67
2023-01-03T11:43:14.438Z,9.72
2023-01-03T11:45:55.132Z,9.73
2023-01-03T11:48:47.124Z,9.76
2023-01-03T11:51:21.071Z,9.78
2023-01-03T11:54:06.070Z,9.81
2023-01-03T11:56:39.468Z,9.84
2023-01-03T11:59:40.155Z,9.84
2023-01-03T12:02:44.416Z,9.87
2023-01-03T12:05:37.835Z,9.92
2023-01-03T12:08:22.754Z,9.98
2023-01-03T12:10:57.031Z,10.01
2023-01-03T12:13:33.914Z,10.05
2023-01-03T12:16:08.698Z,10.08
2023-01-03T12:18:50.990Z,10.13
2023-01-03T12:21:25.939Z,10.16
2023-01-03T12:24:02.420Z,10.22
2023-01-03T12:26:31.503Z,10.26
2023-01-03T12:29:06.909Z,10.26
2023-01-03T12:31:40.140Z,10.27
2023-01-03T12:34:19.540Z,10.28
2023-01-03T12:36:58.080Z,10.28
2023-01-03T12:39:37.995Z,10.31
2023-01-03T12:42:11.905Z,10.33
2023-01-03T12:44:45.540Z,10.33
2023-01-03T12:47:30.140Z,10.28
2023-01-03T12:50:04.771Z,10.34
2023-01-03T12:52:35.365Z,10.38
2023-01-03T12:55:10.064Z,10.39
2023-01-03T12:57:59.206Z,10.36
2023-01-03T13:00:41.033Z,10.38
2023-01-03T13:03:19.042Z,10.36
2023-01-03T13:05:50.873Z,10.42
2023-01-03T13:08:31.157Z,10.42
2023-01-03T13:11:04.191Z,10.43
2023-01-03T13:13:34.124Z,10.48
2023-01-03T13:16:41.054Z,10.43
2023-01-03T13:19:51.605Z,10.43
2023-01-03T13:22:52.055Z,10.42
2023-01-03T13:25:41.418Z,10.45
2023-01-03T13:28:31.324Z,10.45
2023-01-03T13:31:43.894Z,10.41
2023-01-03T13:34:31.662Z,10.47
2023-01-03T13:37:24.205Z,10.41
2023-01-03T13:40:21.925Z,10.45
2023-01-03T13:43:01.744Z,10.48
2023-01-03T13:46:01.131Z,10.45
2023-01-03T13:48:32.621Z,10.55
2023-01-03T13:51:30.188Z,10.59
2023-01-03T13:54:04.579Z,10.62
2023-01-03T13:56:34.041Z,10.62
2023-01-03T13:59:13.447Z,10.58
2023-01-03T14:02:02.148Z,10.58
2023-01-03T14:05:01.102Z,10.53
2023-01-03T14:07:52.247Z,10.53
2023-01-03T14:10:37.312Z,10.50
2023-01-03T14:13:22.598Z,10.48
2023-01-03T14:15:52.965Z,10.49
2023-01-03T14:18:25.599Z,10.49
2023-01-03T14:20:55.418Z,10.54
2023-01-03T14:26:18.026Z,10.47
2023-01-03T14:28:49.997Z,10.51
2023-01-03T14:31:21.273Z,10.51
2023-01-03T14:33:54.497Z,10.53
2023-01-03T14:36:22.419Z,10.53
2023-01-03T14:38:53.314Z,10.53
2023-01-03T14:41:40.147Z,10.48
2023-01-03T14:44:16.229Z,10.53
2023-01-03T14:46:53.269Z,10.50
2023-01-03T14:49:24.036Z,10.49
2023-01-03T14:51:54.703Z,10.51
2023-01-03T14:54:24.215Z,10.51
2023-01-03T14:56:52.085Z,10.50
2023-01-03T14:59:23.296Z,10.51
2023-01-03T15:01:51.885Z,10.49
2023-01-03T15:04:19.906Z,10.47
2023-01-03T15:07:06.560Z,10.42
2023-01-03T15:09:42.284Z,10.46
2023-01-03T15:12:10.206Z,10.48
2023-01-03T15:14:39.998Z,10.50
2023-01-03T15:17:14.708Z,10.53
2023-01-03T15:19:49.581Z,10.52
2023-01-03T15:22:21.561Z,10.53
2023-01-03T15:24:54.897Z,10.50
2023-01-03T15:27:43.602Z,10.39
2023-01-03T15:30:21.041Z,10.37
2023-01-03T15:33:00.976Z,10.31
2023-01-03T15:35:36.953Z,10.28
2023-01-03T15:38:09.179Z,10.27
2023-01-03T15:40:40.334Z,10.23
2023-01-03T15:43:23.596Z,10.22
2023-01-03T15:46:01.814Z,10.13
2023-01-03T15:48:31.621Z,10.16
2023-01-03T15:50:59.757Z,10.14
2023-01-03T15:53:30.921Z,10.08
2023-01-03T15:56:04.269Z,10.06
2023-01-03T15:58:33.552Z,10.04
2023-01-03T16:01:02.107Z,10.02
2023-01-03T16:03:33.100Z,10.02
2023-01-03T16:06:01.157Z,10.02
2023-01-03T16:08:32.315Z,10.01
2023-01-03T16:11:03.467Z,9.97
2023-01-03T16:13:38.278Z,9.89
2023-01-03T16:16:08.637Z,9.87
2023-01-03T16:18:40.137Z,9.85
2023-01-03T16:21:08.101Z,9.82
2023-01-03T16:23:36.383Z,9.75
2023-01-03T16:26:06.202Z,9.65
2023-01-03T16:28:34.110Z,9.67
2023-01-03T16:31:04.310Z,9.64
2023-01-03T16:33:35.612Z,9.60
2023-01-03T16:36:04.133Z,9.57
2023-01-03T16:38:34.162Z,9.54
2023-01-03T16:41:02.165Z,9.52
2023-01-03T16:43:31.585Z,9.51
2023-01-03T16:46:00.759Z,9.47
2023-01-03T16:48:39.281Z,9.41
2023-01-03T16:51:07.463Z,9.38
2023-01-03T16:53:38.716Z,9.39
2023-01-03T16:56:08.456Z,9.40
2023-01-03T16:58:37.630Z,9.41
2023-01-03T17:01:06.306Z,9.43
2023-01-03T17:03:41.274Z,9.44
2023-01-03T17:06:22.995Z,9.42
2023-01-03T17:08:51.139Z,9.39
2023-01-03T17:11:19.297Z,9.34
2023-01-03T17:13:49.529Z,9.32
2023-01-03T17:16:19.563Z,9.29
2023-01-03T17:18:47.555Z,9.28
2023-01-03T17:21:24.098Z,9.24
2023-01-03T17:23:53.901Z,9.24
2023-01-03T17:26:23.769Z,9.18
2023-01-03T17:28:54.515Z,9.21
2023-01-03T17:31:24.084Z,9.16
2023-01-03T17:33:53.028Z,9.16
2023-01-03T17:36:25.341Z,9.12
2023-01-03T17:38:54.792Z,9.10
2023-01-03T17:41:25.181Z,9.08
2023-01-03T17:43:54.526Z,9.10
2023-01-03T17:46:41.533Z,9.10
2023-01-03T17:49:26.921Z,9.12
2023-01-03T17:51:58.634Z,9.15
2023-01-03T17:54:29.808Z,9.15
2023-01-03T17:56:59.482Z,9.13
2023-01-03T17:59:29.253Z,9.13
2023-01-03T18:01:57.759Z,9.13
2023-01-03T18:04:44.079Z,9.13
2023-01-03T18:07:20.991Z,9.10
2023-01-03T18:09:50.086Z,9.08
2023-01-03T18:12:21.033Z,9.05
2023-01-03T18:14:51.173Z,9.05
2023-01-03T18:17:28.338Z,9.05
2023-01-03T18:19:56.903Z,9.07
2023-01-03T18:22:25.076Z,9.08
2023-01-03T18:24:54.383Z,9.08
2023-01-03T18:27:23.993Z,9.05
2023-01-03T18:29:53.322Z,9.06
2023-01-03T18:32:28.495Z,9.05
2023-01-03T18:34:56.679Z,9.07
2023-01-03T18:37:28.119Z,9.10
2023-01-03T18:39:56.322Z,9.15
2023-01-03T18:42:41.568Z,9.15
2023-01-03T18:45:13.493Z,9.15
2023-01-03T18:47:41.389Z,9.15
2023-01-03T18:50:13.577Z,9.10
2023-01-03T18:52:42.278Z,9.10
2023-01-03T18:55:16.769Z,9.07
2023-01-03T18:57:45.050Z,9.04
2023-01-03T19:00:25.805Z,9.02
2023-01-03T19:02:54.714Z,9.02
2023-01-03T19:05:23.006Z,9.01
2023-01-03T19:07:52.859Z,9.01
2023-01-03T19:10:23.434Z,8.97
2023-01-03T19:12:53.336Z,8.99
2023-01-03T19:15:25.471Z,8.95
2023-01-03T19:17:53.594Z,8.96
2023-01-03T19:20:26.477Z,8.96
2023-01-03T19:22:55.874Z,8.91
2023-01-03T19:25:27.334Z,8.94
2023-01-03T19:27:57.256Z,8.94
2023-01-03T19:30:37.153Z,8.96
2023-01-03T19:33:06.927Z,9.00
2023-01-03T19:35:34.901Z,9.03
2023-01-03T19:38:03.096Z,9.03
2023-01-03T19:40:34.216Z,9.01
2023-01-03T19:43:02.635Z,8.99
2023-01-03T19:45:35.714Z,8.98
2023-01-03T19:48:05.840Z,8.99
2023-01-03T19:50:35.812Z,8.96
2023-01-03T19:53:06.320Z,8.97
2023-01-03T19:55:39.078Z,8.95
2023-01-03T19:58:16.732Z,8.94
2023-01-03T20:00:48.565Z,8.96
2023-01-03T20:03:27.018Z,8.98
2023-01-03T20:05:55.521Z,9.03
2023-01-03T20:08:23.476Z,9.05
2023-01-03T20:10:52.652Z,9.04
2023-01-03T20:13:26.284Z,9.06
2023-01-03T20:16:00.487Z,9.04
2023-01-03T20:18:34.383Z,9.02
2023-01-03T20:21:06.426Z,9.00
2023-01-03T20:23:41.640Z,8.93
2023-01-03T20:26:19.055Z,8.88
2023-01-03T20:28:46.946Z,8.90
2023-01-03T20:31:20.279Z,8.88
2023-01-03T20:33:48.867Z,8.85
2023-01-03T20:36:23.036Z,8.79
2023-01-03T20:38:54.356Z,8.77
2023-01-03T20:41:36.045Z,8.79
2023-01-03T20:44:05.065Z,8.74
2023-01-03T20:46:34.712Z,8.74
2023-01-03T20:49:04.323Z,8.76
2023-01-03T20:51:32.439Z,8.80
2023-01-03T20:54:00.439Z,8.84
2023-01-03T20:56:29.612Z,8.84
2023-01-03T20:58:58.390Z,8.86
2023-01-03T21:01:26.414Z,8.79
2023-01-03T21:03:56.213Z,8.83
2023-01-03T21:06:26.889Z,8.82
2023-01-03T21:08:56.753Z,8.77
2023-01-03T21:11:26.354Z,8.74
2023-01-03T21:13:54.533Z,8.71
2023-01-03T21:16:34.379Z,8.66
2023-01-03T21:19:06.202Z,8.69
2023-01-03T21:21:34.857Z,8.68
2023-01-03T21:24:03.093Z,8.65
2023-01-03T21:26:31.211Z,8.63
2023-01-03T21:28:59.551Z,8.62
2023-01-03T21:31:27.859Z,8.61
2023-01-03T21:33:55.980Z,8.59
2023-01-03T21:36:27.859Z,8.60
2023-01-03T21:38:56.444Z,8.64
2023-01-03T21:41:26.301Z,8.63
2023-01-03T21:43:56.639Z,8.67
2023-01-03T21:46:25.466Z,8.67
2023-01-03T21:48:53.753Z,8.63
2023-01-03T21:51:33.430Z,8.66
2023-01-03T21:54:07.918Z,8.65
2023-01-03T21:56:45.361Z,8.61
2023-01-03T21:59:14.257Z,8.59
2023-01-03T22:01:57.679Z,8.57
2023-01-03T22:04:25.731Z,8.53
2023-01-03T22:07:00.682Z,8.52
2023-01-03T22:09:49.138Z,8.52
2023-01-03T22:12:17.393Z,8.50
2023-01-03T22:14:45.321Z,8.49
2023-01-03T22:17:13.537Z,8.49
2023-01-03T22:19:41.648Z,8.48
2023-01-03T22:22:09.635Z,8.49
2023-01-03T22:24:38.875Z,8.50
2023-01-03T22:27:06.741Z,8.54
2023-01-03T22:29:34.670Z,8.53
2023-01-03T22:32:02.569Z,8.61
2023-01-03T22:34:30.606Z,8.62
2023-01-03T22:36:58.598Z,8.63
2023-01-03T22:39:26.639Z,8.62
2023-01-03T22:41:57.463Z,8.59
2023-01-03T22:44:25.454Z,8.55
2023-01-03T22:46:53.364Z,8.52
2023-01-03T22:49:21.315Z,8.55
2023-01-03T22:51:49.140Z,8.53
2023-01-03T22:54:16.975Z,8.55
2023-01-03T22:56:44.841Z,8.53
2023-01-03T22:59:14.031Z,8.54
2023-01-03T23:01:42.005Z,8.54
2023-01-03T23:04:10.131Z,8.53
2023-01-03T23:06:37.924Z,8.53
2023-01-03T23:09:06.287Z,8.55
2023-01-03T23:11:52.358Z,8.54
2023-01-03T23:14:23.351Z,8.57
2023-01-03T23:16:53.358Z,8.63
2023-01-03T23:19:23.317Z,8.69
2023-01-03T23:21:52.186Z,8.71
2023-01-03T23:24:22.436Z,8.72
2023-01-03T23:26:51.180Z,8.71
2023-01-03T23:29:19.628Z,8.72
2023-01-03T23:31:48.930Z,8.72
2023-01-03T23:34:16.898Z,8.69
2023-01-03T23:36:45.012Z,8.68
2023-01-03T23:39:13.538Z,8.65
2023-01-03T23:41:41.378Z,8.68
2023-01-03T23:44:09.381Z,8.66
2023-01-03T23:46:37.168Z,8.69
2023-01-03T23:49:06.539Z,8.68
2023-01-03T23:51:34.371Z,8.70
2023-01-03T23:54:02.237Z,8.73
2023-01-03T23:56:30.077Z,8.72
2023-01-03T23:58:57.911Z,8.76
